CheckWX is a tool to help pilots better visualize weather data.  It is not intended as a substitute for an official pre-flight weather briefing.

02:08:52 UTC

EGOP METAR
Pembrey Sands Airport
Pembrey Sands, United Kingdom
Current

1 hour ago

EGOP 180050Z AUTO 20021KT 4600 // SCT130/// SCT170/// 09/08 Q1012
Observed
Feb-18 @ 00:50 UTC
Wind
  • 200° at 21 KTS
Visibility
4,603 meters
Flight Rules
IFR
Cloud Levels
  • Scattered at 13,000' AGL
  • Scattered at 17,000' AGL
Temperature
C / 48°F
Dewpoint
C / 46°F
Humidity
94%
Altimeter
29.88" Hg
Pressure
1011.92 hPa
Previous

2 hours ago

EGOP 172350Z AUTO 19020KT 4700 // FEW017/// BKN049/// 09/08 Q1012
Observed
Feb-17 @ 23:50 UTC
Wind
  • 190° at 20 KTS
Visibility
4,699 meters
Flight Rules
IFR
Cloud Levels
  • Few at 1,700' AGL
  • Broken at 4,900' AGL
Temperature
C / 48°F
Dewpoint
C / 46°F
Humidity
94%
Altimeter
29.88" Hg
Pressure
1011.92 hPa
Previous

3 hours ago

EGOP 172250Z AUTO 20022KT 5000 // SCT016/// BKN021/// 09/08 Q1012
Observed
Feb-17 @ 22:50 UTC
Wind
  • 200° at 22 KTS
Visibility
5,005 meters
Flight Rules
MVFR
Cloud Levels
  • Scattered at 1,600' AGL
  • Broken at 2,100' AGL
Temperature
C / 48°F
Dewpoint
C / 46°F
Humidity
94%
Altimeter
29.88" Hg
Pressure
1011.92 hPa